Haci Arif Kaptan — TCQQ — position and weather

sailwx.info

Track history (hours):
 
Tides and Currents Weather Stations Pressure Air Temp Water Temp Dewpoint Dewpoint Depression Visibility Wind Speed Wind Dir Waves Ship Positions

Haci Arif Kaptan

Last reported at 2015-Feb-27 06:16 UTC. Time now 2015-Mar-04 02:51 UTC.
Position N 44°50' E 036°32'.

Length 130 m; draft 4.6 m.

Type: Cargo ship. MMSI: 271000494.

Date/timePositionNaut miles runAvg speedWind from/ knotsBaromVisibWave heightAir tempDewpointWater temp
2015-Feb-27 06:16N 44°50' E 036°32'710.0
2015-Feb-27 05:34N 44°47' E 036°23'1010.2
2015-Feb-27 04:33N 44°44' E 036°09'9 9.4
2015-Feb-27 03:33N 44°41' E 035°56'9 9.3
2015-Feb-27 02:33N 44°38' E 035°44'9 9.3
2015-Feb-27 01:33N 44°35' E 035°32'10 9.8
2015-Feb-27 00:34N 44°32' E 035°18'10 9.9
2015-Feb-26 23:34N 44°29' E 035°05'1010.3
2015-Feb-26 22:33N 44°25' E 034°52'1010.0
2015-Feb-26 21:34N 44°21' E 034°39'9 9.5
2015-Feb-26 20:34N 44°18' E 034°27'10 9.6
2015-Feb-26 19:34N 44°14' E 034°15'11 9.9
2015-Feb-26 18:26N 44°07' E 034°02'10 9.7
2015-Feb-26 17:26N 44°01' E 033°51'24311.4
2015-Feb-25 20:12N 41°24' E 029°40'811.8
2015-Feb-25 19:33N 41°19' E 029°32'1010.0
2015-Feb-25 18:33N 41°16' E 029°20'23 7.7
2015-Feb-25 15:33N 40°59' E 028°60'3 3.5
2015-Feb-25 14:33N 40°57' E 028°56'2 2.0
2015-Feb-25 13:28N 40°59' E 028°55'0 0.0
2015-Feb-25 12:28N 40°59' E 028°55'0 0.0
2015-Feb-25 09:16N 40°58' E 028°54'0 0.0
2015-Feb-25 06:04N 40°58' E 028°54'0 0.0
2015-Feb-25 02:16N 40°58' E 028°54'0 0.0
2015-Feb-25 01:28N 40°58' E 028°54'0 0.0
2015-Feb-24 23:28N 40°58' E 028°54'0 0.0
2015-Feb-24 21:10N 40°59' E 028°54'0 0.0
2015-Feb-24 20:10N 40°59' E 028°54'0 0.0
2015-Feb-24 19:04N 40°58' E 028°54'0 0.0
2015-Feb-24 18:04N 40°58' E 028°54'0 0.0
2015-Feb-24 17:10N 40°58' E 028°54'0 0.0
2015-Feb-24 16:22N 40°58' E 028°54'0 0.0
2015-Feb-24 15:04N 40°58' E 028°54'0 0.0
2015-Feb-24 13:16N 40°59' E 028°54'0 0.0
2015-Feb-24 12:28N 40°59' E 028°54'0 0.0
2015-Feb-24 11:28N 40°59' E 028°54'0 0.0
2015-Feb-24 10:28N 40°59' E 028°54'0 0.0
2015-Feb-24 09:16N 40°59' E 028°54'0 0.0
2015-Feb-24 07:22N 40°59' E 028°54'0 0.0
2015-Feb-24 06:10N 40°59' E 028°54'0 0.0
2015-Feb-24 05:04N 40°59' E 028°54'0 0.0
2015-Feb-24 04:28N 40°59' E 028°54'0 0.0
2015-Feb-24 03:22N 40°59' E 028°54'0 0.0
2015-Feb-24 02:28N 40°59' E 028°54'0 0.0
2015-Feb-24 01:10N 40°59' E 028°54'0 0.0
2015-Feb-24 00:16N 40°59' E 028°54'0 0.0
2015-Feb-23 23:10N 40°59' E 028°54'0 0.0
2015-Feb-23 22:28N 40°59' E 028°54'0 0.0
2015-Feb-23 21:10N 40°59' E 028°54'0 0.0
2015-Feb-23 20:28N 40°59' E 028°54'0 0.0
2015-Feb-23 19:22N 40°59' E 028°54'0 0.0
2015-Feb-23 17:22N 40°59' E 028°54'0 0.0
2015-Feb-23 16:22N 40°59' E 028°54'0 0.0
2015-Feb-23 15:16N 40°59' E 028°54'0 0.0
2015-Feb-23 14:16N 40°59' E 028°54'0 0.1
2015-Feb-23 13:25N 40°59' E 028°55'4 4.5
2015-Feb-23 12:32N 40°55' E 028°57'9 8.6
2015-Feb-23 11:33N 40°51' E 028°47'  
Track history (hours):
 
Tides and Currents Weather Stations Pressure Air Temp Water Temp Dewpoint Dewpoint Depression Visibility Wind Speed Wind Dir Waves Ship Positions

Haci Arif Kaptan

Last reported at 2015-Feb-27 06:16 UTC. Time now 2015-Mar-04 02:51 UTC.
Position N 44°50' E 036°32'.

Length 130 m; draft 4.6 m.

Type: Cargo ship. MMSI: 271000494.

Date/timePositionNaut miles runAvg speedWind from/ knotsBaromVisibWave heightAir tempDewpointWater temp
2015-Feb-27 06:16N 44°50' E 036°32'710.0
2015-Feb-27 05:34N 44°47' E 036°23'1010.2
2015-Feb-27 04:33N 44°44' E 036°09'9 9.4
2015-Feb-27 03:33N 44°41' E 035°56'9 9.3
2015-Feb-27 02:33N 44°38' E 035°44'9 9.3
2015-Feb-27 01:33N 44°35' E 035°32'10 9.8
2015-Feb-27 00:34N 44°32' E 035°18'10 9.9
2015-Feb-26 23:34N 44°29' E 035°05'1010.3
2015-Feb-26 22:33N 44°25' E 034°52'1010.0
2015-Feb-26 21:34N 44°21' E 034°39'9 9.5
2015-Feb-26 20:34N 44°18' E 034°27'10 9.6
2015-Feb-26 19:34N 44°14' E 034°15'11 9.9
2015-Feb-26 18:26N 44°07' E 034°02'10 9.7
2015-Feb-26 17:26N 44°01' E 033°51'24311.4
2015-Feb-25 20:12N 41°24' E 029°40'811.8
2015-Feb-25 19:33N 41°19' E 029°32'1010.0
2015-Feb-25 18:33N 41°16' E 029°20'23 7.7
2015-Feb-25 15:33N 40°59' E 028°60'3 3.5
2015-Feb-25 14:33N 40°57' E 028°56'2 2.0
2015-Feb-25 13:28N 40°59' E 028°55'0 0.0
2015-Feb-25 12:28N 40°59' E 028°55'0 0.0
2015-Feb-25 09:16N 40°58' E 028°54'0 0.0
2015-Feb-25 06:04N 40°58' E 028°54'0 0.0
2015-Feb-25 02:16N 40°58' E 028°54'0 0.0
2015-Feb-25 01:28N 40°58' E 028°54'0 0.0
2015-Feb-24 23:28N 40°58' E 028°54'0 0.0
2015-Feb-24 21:10N 40°59' E 028°54'0 0.0
2015-Feb-24 20:10N 40°59' E 028°54'0 0.0
2015-Feb-24 19:04N 40°58' E 028°54'0 0.0
2015-Feb-24 18:04N 40°58' E 028°54'0 0.0
2015-Feb-24 17:10N 40°58' E 028°54'0 0.0
2015-Feb-24 16:22N 40°58' E 028°54'0 0.0
2015-Feb-24 15:04N 40°58' E 028°54'0 0.0
2015-Feb-24 13:16N 40°59' E 028°54'0 0.0
2015-Feb-24 12:28N 40°59' E 028°54'0 0.0
2015-Feb-24 11:28N 40°59' E 028°54'0 0.0
2015-Feb-24 10:28N 40°59' E 028°54'0 0.0
2015-Feb-24 09:16N 40°59' E 028°54'0 0.0
2015-Feb-24 07:22N 40°59' E 028°54'0 0.0
2015-Feb-24 06:10N 40°59' E 028°54'0 0.0
2015-Feb-24 05:04N 40°59' E 028°54'0 0.0
2015-Feb-24 04:28N 40°59' E 028°54'0 0.0
2015-Feb-24 03:22N 40°59' E 028°54'0 0.0
2015-Feb-24 02:28N 40°59' E 028°54'0 0.0
2015-Feb-24 01:10N 40°59' E 028°54'0 0.0
2015-Feb-24 00:16N 40°59' E 028°54'0 0.0
2015-Feb-23 23:10N 40°59' E 028°54'0 0.0
2015-Feb-23 22:28N 40°59' E 028°54'0 0.0
2015-Feb-23 21:10N 40°59' E 028°54'0 0.0
2015-Feb-23 20:28N 40°59' E 028°54'0 0.0
2015-Feb-23 19:22N 40°59' E 028°54'0 0.0
2015-Feb-23 17:22N 40°59' E 028°54'0 0.0
2015-Feb-23 16:22N 40°59' E 028°54'0 0.0
2015-Feb-23 15:16N 40°59' E 028°54'0 0.0
2015-Feb-23 14:16N 40°59' E 028°54'0 0.1
2015-Feb-23 13:25N 40°59' E 028°55'4 4.5
2015-Feb-23 12:32N 40°55' E 028°57'9 8.6
2015-Feb-23 11:33N 40°51' E 028°47'  

Dump ship's entire track history